CPX954 Details

Departure: Patrick Air Force Base (KCOF)
Arrival: Miami International Airport (KMIA) at N/A
Route: MLB BLUFI4
Notes: EMPTY | NON-REVENUE REPOSITIONING LEG | VFR DEPARTURE RCMD IF WX PERMITS


Current Weather Information
KCOF 171656Z AUTO 13009KT 10SM FEW190 30/26 A3010 RMK AO2 SLP197 T02990260 $
KMIA 171653Z 14008KT 110V190 10SM SCT035 BKN050 BKN120 BKN250 33/23 A3009 RMK AO2 LTG DSNT NW SLP191 CB DSNT NW T03330228